createdAt,value
2023-03-02T00:01:27.637Z,22.73
2023-03-02T00:03:59.261Z,22.23
2023-03-02T00:06:28.231Z,22.92
2023-03-02T00:09:00.554Z,23.58
2023-03-02T00:11:31.541Z,27.60
2023-03-02T00:13:59.798Z,25.88
2023-03-02T00:16:28.033Z,26.08
2023-03-02T00:18:56.078Z,25.27
2023-03-02T00:21:24.518Z,25.92
2023-03-02T00:23:53.623Z,25.40
2023-03-02T00:26:21.701Z,26.58
2023-03-02T00:28:51.317Z,26.63
2023-03-02T00:31:19.774Z,29.60
2023-03-02T00:33:48.090Z,29.40
2023-03-02T00:36:17.229Z,29.13
2023-03-02T00:38:46.307Z,30.20
2023-03-02T00:41:15.831Z,29.55
2023-03-02T00:43:44.429Z,34.17
2023-03-02T00:46:16.059Z,32.55
2023-03-02T00:48:44.814Z,32.38
2023-03-02T00:51:13.324Z,30.98
2023-03-02T00:53:42.411Z,30.17
2023-03-02T00:56:11.140Z,33.65
2023-03-02T00:58:44.224Z,30.13
2023-03-02T01:01:15.777Z,31.45
2023-03-02T01:03:48.266Z,30.75
2023-03-02T01:06:18.596Z,30.30
2023-03-02T01:08:47.256Z,28.20
2023-03-02T01:11:17.247Z,29.10
2023-03-02T01:13:46.340Z,29.45
2023-03-02T01:16:16.264Z,31.33
2023-03-02T01:18:44.784Z,33.20
2023-03-02T01:21:15.297Z,30.08
2023-03-02T01:23:43.842Z,28.95
2023-03-02T01:26:13.087Z,30.30
2023-03-02T01:28:41.207Z,30.20
2023-03-02T01:31:09.297Z,28.90
2023-03-02T01:33:38.944Z,29.48
2023-03-02T01:36:08.158Z,29.33
2023-03-02T01:38:36.469Z,29.00
2023-03-02T01:41:04.986Z,28.42
2023-03-02T01:43:33.127Z,28.83
2023-03-02T01:46:04.366Z,28.77
2023-03-02T01:48:48.059Z,27.27
2023-03-02T01:51:24.333Z,25.90
2023-03-02T01:53:56.278Z,30.60
2023-03-02T01:56:31.369Z,27.17
2023-03-02T01:59:02.996Z,26.27
2023-03-02T02:01:33.208Z,26.80
2023-03-02T02:04:05.618Z,26.35
2023-03-02T02:06:38.920Z,26.77
2023-03-02T02:09:10.500Z,25.05
2023-03-02T02:11:38.813Z,25.15
2023-03-02T02:14:07.787Z,24.88
2023-03-02T02:16:38.043Z,26.75
2023-03-02T02:19:19.288Z,23.98
2023-03-02T02:21:47.797Z,24.92
2023-03-02T02:24:22.686Z,23.27
2023-03-02T02:26:55.455Z,23.85
2023-03-02T02:29:27.085Z,25.73
2023-03-02T02:32:00.624Z,25.02
2023-03-02T02:34:32.778Z,23.88
2023-03-02T02:37:07.760Z,26.27
2023-03-02T02:39:40.173Z,24.35
2023-03-02T02:42:16.655Z,25.65
2023-03-02T02:44:44.840Z,27.75
2023-03-02T02:47:18.545Z,25.90
2023-03-02T02:49:49.522Z,23.70
2023-03-02T02:52:20.748Z,24.75
2023-03-02T02:54:51.896Z,24.25
2023-03-02T02:57:25.215Z,25.17
2023-03-02T02:59:56.833Z,25.48
2023-03-02T03:02:28.568Z,25.63
2023-03-02T03:05:02.866Z,25.50
2023-03-02T03:07:34.379Z,26.95
2023-03-02T03:10:11.645Z,27.23
2023-03-02T03:12:41.953Z,27.65
2023-03-02T03:15:12.213Z,26.27
2023-03-02T03:17:40.822Z,27.85
2023-03-02T03:20:10.674Z,26.25
2023-03-02T03:22:43.618Z,27.65
2023-03-02T03:25:15.533Z,26.42
2023-03-02T03:27:48.123Z,28.75
2023-03-02T03:30:18.074Z,28.30
2023-03-02T03:32:46.819Z,26.15
2023-03-02T03:35:16.800Z,26.83
2023-03-02T03:37:45.925Z,27.13
2023-03-02T03:40:16.489Z,27.42
2023-03-02T03:42:47.852Z,27.70
2023-03-02T03:45:16.256Z,30.45
2023-03-02T03:47:45.389Z,28.75
2023-03-02T03:50:13.848Z,28.92
2023-03-02T03:52:42.536Z,28.23
2023-03-02T03:55:18.199Z,30.42
2023-03-02T03:57:49.191Z,27.70
2023-03-02T04:00:18.710Z,27.42
2023-03-02T04:03:06.405Z,26.73
2023-03-02T04:05:34.893Z,28.85
2023-03-02T04:08:04.120Z,28.45
2023-03-02T04:10:33.361Z,28.77
2023-03-02T04:13:04.278Z,27.38
2023-03-02T04:15:33.028Z,26.58
2023-03-02T04:18:01.818Z,28.33
2023-03-02T04:20:31.030Z,29.55
2023-03-02T04:22:59.940Z,27.67
2023-03-02T04:25:30.003Z,27.55
2023-03-02T04:28:18.873Z,28.52
2023-03-02T04:30:47.432Z,29.42
2023-03-02T04:33:15.549Z,26.13
2023-03-02T04:35:44.197Z,24.42
2023-03-02T04:38:12.502Z,29.02
2023-03-02T04:40:40.816Z,27.33
2023-03-02T04:43:08.894Z,29.27
2023-03-02T04:45:38.668Z,27.30
2023-03-02T04:48:07.746Z,28.38
2023-03-02T04:50:36.015Z,27.17
2023-03-02T04:53:04.346Z,27.88
2023-03-02T04:55:32.748Z,28.95
2023-03-02T04:58:00.997Z,25.40
2023-03-02T05:00:30.008Z,27.15
2023-03-02T05:02:59.963Z,27.40
2023-03-02T05:05:29.666Z,30.67
2023-03-02T05:07:59.492Z,27.75
2023-03-02T05:10:29.066Z,25.02
2023-03-02T05:13:01.626Z,28.67
2023-03-02T05:15:32.771Z,27.40
2023-03-02T05:18:02.777Z,26.10
2023-03-02T05:20:31.612Z,28.33
2023-03-02T05:23:02.060Z,26.95
2023-03-02T05:25:32.261Z,25.13
2023-03-02T05:28:00.373Z,26.77
2023-03-02T05:30:28.923Z,25.33
2023-03-02T05:32:57.114Z,24.67
2023-03-02T05:35:27.263Z,27.90
2023-03-02T05:37:55.972Z,26.33
2023-03-02T05:40:24.264Z,28.08
2023-03-02T05:42:52.408Z,27.58
2023-03-02T05:45:24.394Z,27.90
2023-03-02T05:47:52.885Z,27.52
2023-03-02T05:50:21.055Z,26.88
2023-03-02T05:52:51.758Z,27.25
2023-03-02T05:55:20.469Z,24.23
2023-03-02T05:57:49.666Z,27.67
2023-03-02T06:00:19.403Z,27.95
2023-03-02T06:02:47.747Z,25.98
2023-03-02T06:05:17.935Z,25.60
2023-03-02T06:07:46.662Z,26.80
2023-03-02T06:10:16.347Z,26.73
2023-03-02T06:12:44.563Z,27.27
2023-03-02T06:15:12.632Z,26.00
2023-03-02T06:17:41.061Z,25.58
2023-03-02T06:20:10.896Z,25.42
2023-03-02T06:22:41.355Z,26.17
2023-03-02T06:25:11.030Z,26.63
2023-03-02T06:27:41.712Z,27.13
2023-03-02T06:30:14.262Z,27.20
2023-03-02T06:32:43.005Z,26.80
2023-03-02T06:35:11.851Z,28.95
2023-03-02T06:37:42.319Z,30.30
2023-03-02T06:40:13.839Z,27.58
2023-03-02T06:42:44.383Z,30.00
2023-03-02T06:45:13.238Z,28.08
2023-03-02T06:47:41.712Z,28.63
2023-03-02T06:50:11.876Z,27.65
2023-03-02T06:52:40.310Z,29.45
2023-03-02T06:55:09.580Z,28.98
2023-03-02T06:57:37.863Z,27.20
2023-03-02T07:00:11.343Z,30.23
2023-03-02T07:02:39.456Z,28.90
2023-03-02T07:05:08.554Z,26.63
2023-03-02T07:07:36.689Z,28.27
2023-03-02T07:10:05.663Z,27.92
2023-03-02T07:12:33.875Z,29.30
2023-03-02T07:15:02.085Z,30.48
2023-03-02T07:17:31.907Z,27.40
2023-03-02T07:19:59.927Z,28.52
2023-03-02T07:22:28.187Z,29.63
2023-03-02T07:24:56.440Z,36.33
2023-03-02T07:27:24.495Z,28.50
2023-03-02T07:29:52.522Z,27.20
2023-03-02T07:32:21.031Z,26.55
2023-03-02T07:34:50.450Z,25.98
2023-03-02T07:37:18.739Z,26.00
2023-03-02T07:39:48.474Z,27.33
2023-03-02T07:42:17.639Z,25.17
2023-03-02T07:44:49.157Z,27.75
2023-03-02T07:47:17.251Z,26.30
2023-03-02T07:49:45.250Z,25.95
2023-03-02T07:52:15.021Z,25.48
2023-03-02T07:54:43.121Z,24.30
2023-03-02T07:57:13.722Z,24.90
2023-03-02T07:59:42.139Z,23.50
2023-03-02T08:02:11.782Z,22.08
2023-03-02T08:04:39.849Z,25.10
2023-03-02T08:07:08.427Z,24.38
2023-03-02T08:09:39.971Z,25.20
2023-03-02T08:12:27.058Z,25.35
2023-03-02T08:14:55.288Z,22.23
2023-03-02T08:17:23.756Z,21.98
2023-03-02T08:19:52.154Z,24.10
2023-03-02T08:22:20.139Z,24.33
2023-03-02T08:24:49.835Z,21.23
2023-03-02T08:27:18.225Z,23.75
2023-03-02T08:29:46.361Z,23.30
2023-03-02T08:32:14.549Z,22.50
2023-03-02T08:34:43.223Z,23.33
2023-03-02T08:37:11.312Z,23.77
2023-03-02T08:39:39.651Z,22.15
2023-03-02T08:42:09.787Z,21.67
2023-03-02T08:44:37.956Z,21.45
2023-03-02T08:47:06.107Z,22.08
2023-03-02T08:49:34.497Z,23.88
2023-03-02T08:52:02.548Z,19.40
2023-03-02T08:54:31.173Z,20.10
2023-03-02T08:56:59.395Z,19.67
2023-03-02T08:59:28.917Z,23.85
2023-03-02T09:01:57.041Z,20.27
2023-03-02T09:04:25.514Z,22.52
2023-03-02T09:06:53.606Z,17.40
2023-03-02T09:09:21.941Z,19.80
2023-03-02T09:11:50.356Z,22.38
2023-03-02T09:14:18.553Z,20.92
2023-03-02T09:16:48.080Z,23.70
2023-03-02T09:19:16.596Z,22.90
2023-03-02T09:21:44.602Z,21.08
2023-03-02T09:24:13.005Z,22.73
2023-03-02T09:26:41.239Z,23.83
2023-03-02T09:29:09.705Z,19.83
2023-03-02T09:31:38.698Z,23.38
2023-03-02T09:34:08.528Z,22.38
2023-03-02T09:36:36.575Z,22.73
2023-03-02T09:39:09.499Z,21.23
2023-03-02T09:42:01.795Z,23.42
2023-03-02T09:45:02.487Z,19.85
2023-03-02T09:47:38.762Z,20.77
2023-03-02T09:50:28.912Z,24.85
2023-03-02T09:53:22.631Z,22.70
2023-03-02T09:55:56.179Z,19.05
2023-03-02T09:58:26.935Z,18.80
2023-03-02T10:00:55.272Z,19.80
2023-03-02T10:03:27.031Z,17.70
2023-03-02T10:05:57.086Z,20.02
2023-03-02T10:08:29.029Z,18.08
2023-03-02T10:11:05.167Z,16.20
2023-03-02T10:13:42.442Z,17.77
2023-03-02T10:16:19.676Z,19.65
2023-03-02T10:18:52.150Z,20.02
2023-03-02T10:21:26.106Z,18.73
2023-03-02T10:24:00.288Z,17.17
2023-03-02T10:26:38.710Z,16.92
2023-03-02T10:29:24.048Z,18.42
2023-03-02T10:31:58.891Z,18.33
2023-03-02T10:34:31.001Z,17.55
2023-03-02T10:37:00.577Z,17.13
2023-03-02T10:39:28.601Z,20.35
2023-03-02T10:42:01.876Z,20.02
2023-03-02T10:44:34.782Z,20.95
2023-03-02T10:47:03.253Z,20.60
2023-03-02T10:49:32.793Z,19.08
2023-03-02T10:52:05.496Z,21.15
2023-03-02T10:54:35.631Z,18.90
2023-03-02T10:57:06.674Z,19.05
2023-03-02T10:59:44.695Z,19.98
2023-03-02T11:02:22.602Z,20.05
2023-03-02T11:04:57.206Z,19.83
2023-03-02T11:07:30.467Z,17.35
2023-03-02T11:10:03.174Z,17.73
2023-03-02T11:12:32.875Z,18.75
2023-03-02T11:15:17.535Z,18.10
2023-03-02T11:17:48.489Z,16.92
2023-03-02T11:20:21.135Z,16.50
2023-03-02T11:23:00.766Z,17.27
2023-03-02T11:25:32.850Z,17.38
2023-03-02T11:28:06.632Z,19.45
2023-03-02T11:30:41.548Z,17.83
2023-03-02T11:33:14.738Z,19.75
2023-03-02T11:35:48.458Z,17.33
2023-03-02T11:38:24.701Z,17.10
2023-03-02T11:40:56.295Z,17.20
2023-03-02T11:43:24.783Z,19.25
2023-03-02T11:45:59.405Z,15.57
2023-03-02T11:48:32.216Z,20.60
2023-03-02T11:51:02.870Z,19.00
2023-03-02T11:53:40.404Z,18.40
2023-03-02T11:56:09.084Z,15.48
2023-03-02T11:58:40.189Z,14.02
2023-03-02T12:01:11.234Z,17.55
2023-03-02T12:03:41.510Z,14.90
2023-03-02T12:06:28.781Z,14.23
2023-03-02T12:09:12.039Z,14.02
2023-03-02T12:11:42.623Z,16.23
2023-03-02T12:14:30.693Z,14.88
2023-03-02T12:17:08.063Z,16.88
2023-03-02T12:19:45.133Z,15.45
2023-03-02T12:22:15.452Z,17.75
2023-03-02T12:24:46.135Z,13.95
2023-03-02T12:27:27.071Z,14.65
2023-03-02T12:30:12.479Z,12.77
2023-03-02T12:32:41.097Z,13.23
2023-03-02T12:35:14.575Z,11.93
2023-03-02T12:37:49.055Z,13.77
2023-03-02T12:43:23.979Z,11.77
2023-03-02T12:46:20.413Z,13.77
2023-03-02T12:48:58.431Z,13.68
2023-03-02T12:51:29.809Z,11.85
2023-03-02T12:54:06.644Z,11.35
2023-03-02T12:56:36.538Z,13.98
2023-03-02T12:59:05.394Z,12.38
2023-03-02T13:01:34.738Z,12.30
2023-03-02T13:04:02.860Z,15.15
2023-03-02T13:06:33.444Z,13.10
2023-03-02T13:09:02.224Z,13.55
2023-03-02T13:11:35.753Z,13.60
2023-03-02T13:14:20.244Z,11.48
2023-03-02T13:16:59.595Z,15.23
2023-03-02T13:19:30.717Z,13.43
2023-03-02T13:21:59.669Z,14.05
2023-03-02T13:24:36.190Z,11.93
2023-03-02T13:27:17.024Z,14.50
2023-03-02T13:29:45.794Z,10.45
2023-03-02T13:32:23.040Z,11.48
2023-03-02T13:34:53.599Z,10.80
2023-03-02T13:37:28.835Z,12.82
2023-03-02T13:39:59.197Z,12.10
2023-03-02T13:42:35.186Z,12.63
2023-03-02T13:45:25.798Z,12.48
2023-03-02T13:47:54.487Z,13.50
2023-03-02T13:50:26.218Z,13.07
2023-03-02T13:52:56.314Z,13.23
2023-03-02T13:55:24.797Z,13.80
2023-03-02T13:57:57.353Z,15.48
2023-03-02T14:00:31.394Z,12.90
2023-03-02T14:03:00.133Z,13.48
2023-03-02T14:05:33.147Z,12.68
2023-03-02T14:08:03.028Z,12.47
2023-03-02T14:10:31.122Z,13.43
2023-03-02T14:13:06.315Z,12.20
2023-03-02T14:15:35.340Z,12.82
2023-03-02T14:18:03.464Z,15.82
2023-03-02T14:20:31.916Z,14.18
2023-03-02T14:23:03.461Z,13.77
2023-03-02T14:25:32.215Z,13.38
2023-03-02T14:28:01.633Z,14.95
2023-03-02T14:30:29.827Z,12.73
2023-03-02T14:32:58.223Z,16.10
2023-03-02T14:35:27.191Z,12.05
2023-03-02T14:37:55.313Z,14.65
2023-03-02T14:40:27.116Z,17.27
2023-03-02T14:42:55.496Z,17.40
2023-03-02T14:45:24.871Z,12.63
2023-03-02T14:47:53.464Z,12.85
2023-03-02T14:50:21.758Z,18.20
2023-03-02T14:52:52.820Z,15.23
2023-03-02T14:55:26.344Z,14.73
2023-03-02T14:57:57.563Z,15.90
2023-03-02T15:00:28.649Z,14.05
2023-03-02T15:02:59.028Z,16.80
2023-03-02T15:05:27.409Z,18.58
2023-03-02T15:07:58.787Z,16.13
2023-03-02T15:10:27.043Z,15.32
2023-03-02T15:12:55.055Z,17.65
2023-03-02T15:15:24.794Z,17.98
2023-03-02T15:17:54.195Z,24.02
2023-03-02T15:20:22.621Z,23.42
2023-03-02T15:22:50.673Z,22.52
2023-03-02T15:25:18.863Z,17.48
2023-03-02T15:27:46.868Z,19.45
2023-03-02T15:30:15.474Z,17.42
2023-03-02T15:32:43.441Z,17.85
2023-03-02T15:35:13.197Z,19.50
2023-03-02T15:37:41.582Z,22.10
2023-03-02T15:40:10.937Z,19.42
2023-03-02T15:42:38.984Z,20.83
2023-03-02T15:45:08.176Z,21.38
2023-03-02T15:47:37.474Z,19.38
2023-03-02T15:50:06.623Z,17.50
2023-03-02T15:52:36.212Z,19.75
2023-03-02T15:55:04.512Z,18.80
2023-03-02T15:57:37.187Z,17.88
2023-03-02T16:00:06.221Z,19.23
2023-03-02T16:02:34.578Z,22.67
2023-03-02T16:05:03.096Z,24.25
2023-03-02T16:07:31.685Z,24.42
2023-03-02T16:10:01.355Z,24.88
2023-03-02T16:12:29.675Z,22.25
2023-03-02T16:14:57.795Z,22.85
2023-03-02T16:17:25.840Z,22.67
2023-03-02T16:19:54.492Z,26.00
2023-03-02T16:22:22.526Z,27.83
2023-03-02T16:24:50.958Z,27.42
2023-03-02T16:27:20.537Z,26.25
2023-03-02T16:29:48.640Z,26.05
2023-03-02T16:32:16.801Z,25.67
2023-03-02T16:34:45.294Z,25.05
2023-03-02T16:37:13.425Z,27.27
2023-03-02T16:39:41.744Z,27.30
2023-03-02T16:42:09.974Z,26.83
2023-03-02T16:44:39.452Z,25.10
2023-03-02T16:47:07.481Z,26.73
2023-03-02T16:49:35.811Z,27.48
2023-03-02T16:52:03.875Z,24.98
2023-03-02T16:54:32.029Z,27.10
2023-03-02T16:57:00.261Z,27.25
2023-03-02T16:59:28.335Z,27.92
2023-03-02T17:01:57.804Z,30.90
2023-03-02T17:04:26.024Z,29.58
2023-03-02T17:07:01.670Z,28.88
2023-03-02T17:09:30.643Z,31.73
2023-03-02T17:11:58.663Z,30.10
2023-03-02T17:14:26.994Z,28.92
2023-03-02T17:16:58.265Z,29.30
2023-03-02T17:19:29.420Z,30.73
2023-03-02T17:21:58.467Z,29.30
2023-03-02T17:24:26.712Z,30.55
2023-03-02T17:26:55.109Z,29.92
2023-03-02T17:29:23.630Z,32.97
2023-03-02T17:31:52.153Z,32.58
2023-03-02T17:34:21.569Z,34.92
2023-03-02T17:36:49.709Z,33.05
2023-03-02T17:39:17.767Z,29.73
2023-03-02T17:41:45.891Z,32.25
2023-03-02T17:44:13.980Z,33.53
2023-03-02T17:46:44.404Z,32.58
2023-03-02T17:49:13.467Z,31.13
2023-03-02T17:51:42.904Z,33.25
2023-03-02T17:54:11.053Z,31.20
2023-03-02T17:56:39.268Z,32.15
2023-03-02T17:59:07.337Z,31.65
2023-03-02T18:01:36.181Z,32.15
2023-03-02T18:04:04.781Z,31.52
2023-03-02T18:06:33.212Z,27.67
2023-03-02T18:09:02.877Z,27.10
2023-03-02T18:11:31.045Z,30.23
2023-03-02T18:13:59.364Z,27.08
2023-03-02T18:16:29.237Z,27.30
2023-03-02T18:18:57.743Z,26.73
2023-03-02T18:21:26.045Z,25.40
2023-03-02T18:23:54.449Z,25.83
2023-03-02T18:26:24.333Z,27.85
2023-03-02T18:28:52.660Z,30.50
2023-03-02T18:31:21.485Z,29.13
2023-03-02T18:33:50.006Z,30.25
2023-03-02T18:36:18.340Z,27.65
2023-03-02T18:38:46.842Z,29.15
2023-03-02T18:41:15.313Z,30.08
2023-03-02T18:46:47.012Z,25.15
2023-03-02T18:49:15.130Z,26.08
2023-03-02T18:51:43.329Z,26.17
2023-03-02T18:54:11.673Z,24.63
2023-03-02T18:56:40.683Z,22.58
2023-03-02T18:59:09.755Z,24.95
2023-03-02T19:01:38.349Z,25.38
2023-03-02T19:04:08.019Z,24.17
2023-03-02T19:06:36.169Z,24.55
2023-03-02T19:09:04.607Z,24.55
2023-03-02T19:11:32.898Z,24.08
2023-03-02T19:14:01.063Z,23.67
2023-03-02T19:16:30.001Z,28.40
2023-03-02T19:18:58.126Z,25.10
2023-03-02T19:21:27.958Z,28.10
2023-03-02T19:23:56.134Z,24.30
2023-03-02T19:26:24.517Z,26.30
2023-03-02T19:28:52.575Z,26.48
2023-03-02T19:31:20.918Z,26.25
2023-03-02T19:33:49.082Z,24.80
2023-03-02T19:36:17.384Z,26.60
2023-03-02T19:38:46.960Z,26.50
2023-03-02T19:41:16.829Z,25.02
2023-03-02T19:43:46.113Z,24.85
2023-03-02T19:46:14.850Z,25.27
2023-03-02T19:48:43.696Z,24.55
2023-03-02T19:51:13.486Z,24.00
2023-03-02T19:53:42.508Z,25.38
2023-03-02T19:56:14.406Z,25.58
2023-03-02T19:58:49.801Z,21.95
2023-03-02T20:01:21.560Z,21.17
2023-03-02T20:03:51.702Z,21.23
2023-03-02T20:06:20.637Z,24.42
2023-03-02T20:08:49.163Z,22.42
2023-03-02T20:11:19.178Z,21.92
2023-03-02T20:13:48.227Z,21.65
2023-03-02T20:16:16.545Z,19.92
2023-03-02T20:18:45.786Z,21.08
2023-03-02T20:21:13.801Z,16.95
2023-03-02T20:23:42.168Z,16.42
2023-03-02T20:26:11.903Z,17.33
2023-03-02T20:28:41.442Z,15.73
2023-03-02T20:31:12.661Z,15.88
2023-03-02T20:33:46.286Z,16.23
2023-03-02T20:36:16.232Z,16.63
2023-03-02T20:38:48.746Z,19.80
2023-03-02T20:41:19.125Z,17.98
2023-03-02T20:43:48.655Z,18.27
2023-03-02T20:46:20.554Z,19.35
2023-03-02T20:48:50.563Z,16.58
2023-03-02T20:51:19.028Z,15.75
2023-03-02T20:53:47.831Z,17.83
2023-03-02T20:56:18.076Z,21.88
2023-03-02T20:58:48.991Z,20.67
2023-03-02T21:01:18.777Z,18.65
2023-03-02T21:03:47.244Z,18.00
2023-03-02T21:06:16.244Z,19.23
2023-03-02T21:08:45.320Z,19.58
2023-03-02T21:11:16.648Z,18.27
2023-03-02T21:13:46.499Z,19.60
2023-03-02T21:16:21.168Z,18.70
2023-03-02T21:18:49.649Z,18.90
2023-03-02T21:21:20.170Z,21.80
2023-03-02T21:23:51.836Z,20.55
2023-03-02T21:26:20.033Z,19.45
2023-03-02T21:28:48.572Z,17.35
2023-03-02T21:31:19.593Z,17.42
2023-03-02T21:33:49.550Z,16.73
2023-03-02T21:36:21.837Z,16.45
2023-03-02T21:38:50.085Z,18.85
2023-03-02T21:41:18.575Z,15.35
2023-03-02T21:43:47.912Z,17.70
2023-03-02T21:46:20.132Z,20.83
2023-03-02T21:48:49.483Z,18.70
2023-03-02T21:51:17.530Z,19.65
2023-03-02T21:53:45.784Z,18.92
2023-03-02T21:56:20.491Z,19.55
2023-03-02T21:58:49.923Z,17.65
2023-03-02T22:01:19.564Z,18.40
2023-03-02T22:03:48.134Z,19.58
2023-03-02T22:06:18.507Z,17.77
2023-03-02T22:08:46.888Z,18.08
2023-03-02T22:11:20.583Z,16.75
2023-03-02T22:13:50.124Z,18.20
2023-03-02T22:16:21.699Z,17.20
2023-03-02T22:18:53.845Z,18.15
2023-03-02T22:21:31.963Z,18.02
2023-03-02T22:24:14.100Z,18.55
2023-03-02T22:26:44.596Z,20.73
2023-03-02T22:29:16.685Z,17.58
2023-03-02T22:31:51.198Z,17.60
2023-03-02T22:34:23.949Z,19.90
2023-03-02T22:36:52.601Z,16.90
2023-03-02T22:39:29.241Z,18.33
2023-03-02T22:42:06.249Z,17.55
2023-03-02T22:44:34.517Z,16.92
2023-03-02T22:47:07.402Z,16.77
2023-03-02T22:49:35.596Z,21.40
2023-03-02T22:52:12.618Z,18.15
2023-03-02T22:54:40.755Z,18.38
2023-03-02T22:57:25.967Z,18.92
2023-03-02T23:00:08.401Z,18.30
2023-03-02T23:02:41.579Z,20.92
2023-03-02T23:05:25.892Z,23.30
2023-03-02T23:08:00.893Z,18.73
2023-03-02T23:10:29.088Z,20.05
2023-03-02T23:12:57.103Z,20.27
2023-03-02T23:15:25.584Z,18.25
2023-03-02T23:17:58.423Z,23.40
2023-03-02T23:20:27.009Z,22.45
2023-03-02T23:22:55.124Z,19.25
2023-03-02T23:25:23.459Z,20.85
2023-03-02T23:27:52.144Z,20.58
2023-03-02T23:30:22.470Z,23.17
2023-03-02T23:32:50.758Z,19.38
2023-03-02T23:35:20.651Z,22.23
2023-03-02T23:37:49.028Z,22.08
2023-03-02T23:40:17.451Z,21.20
2023-03-02T23:42:46.240Z,20.27
2023-03-02T23:45:15.192Z,23.58
2023-03-02T23:47:44.444Z,21.30
2023-03-02T23:50:14.485Z,19.35
2023-03-02T23:52:43.946Z,21.15
2023-03-02T23:55:12.518Z,21.27
2023-03-02T23:57:41.100Z,21.77
